Blackpool, United Kingdom

4:39 AM BST on July 28, 2015 (GMT +0100)
IENGLAND202 | | Change Station
CLOSE
Current Station
Personal Weather Station
Location: Blackpool, ENGLAND
Elevation: 30 ft
Nearby Weather Stations

Elev 30 ft 53.78 °N, 3.01 °W | Updated 37 seconds ago

Mostly Cloudy
Mostly Cloudy
55.6 °F
Feels Like 55.6 °F
N
12.1
Wind Variable Wind from West
Gusts 20.7 mph

Today
High -- | Low -- °F
--% Chance of Precip.
Yesterday
High -- | Low -- °F
Precip. -- in
5:19 AM 9:16 PM
Waxing Gibbous, 86% visible
Pressure 29.53 in
Visibility 6.2 miles
Clouds Few 1000 ft
Mostly Cloudy 1500 ft
Dew Point 54 °F
Humidity 93%
Rainfall 0.19 in
Snow Depth Not available.
UV 0.0 out of 12
Pollen Not available.
Air Quality Not available.
Flu Activity Not available.
METAR EGGP 280320Z 26014KT 9999 FEW010 BKN015 13/11 Q1000

More Conditions Fewer Conditions

Pressure 29.53 in
Visibility 6.2 miles
Clouds Few 1000 ft
Mostly Cloudy 1500 ft
Dew Point 54 °F
Humidity 93%
Rainfall 0.19 in
Snow Depth Not available.
UV 0.0 out of 12
Pollen Not available.
Air Quality Not available.
Flu Activity Not available.
METAR EGGP 280320Z 26014KT 9999 FEW010 BKN015 13/11 Q1000

More Conditions Fewer Conditions

10-Day Weather Forecast

×

Almanac

Astronomy

Jul. 28, 2015 Rise Set
Actual Time
Civil Twilight
Nautical Twilight
Astronomical Twilight
Moon
Length of Visible Light
Length of Day
Tomorrow will be .
, % of the Moon is Illuminated

Today's Extremes

Country Highs Country Lows

Community

WunderPhotos

Upload Photos

1,841,787 photos uploaded!

WunderBlogs® & News

Nearby

Air Quality

  Air Quality AQ Index Pollutant
Not available.

Snow Depth

Station Depth Elevation

Earthquake Activity

City Distance Mag. Time & Date
Minimum magnitude displayed is 2.5.

Coastal Water Temperatures

Place Temperature

Stations

Nearby Weather Stations

Station Location Temp. Windchill Dew Point Humidity Wind Precip. Elev Updated Type